sensor_id;sensor_type;location;lat;lon;timestamp;pressure;altitude;pressure_sealevel;temperature;humidity
35989;BME280;22064;42.672;23.282;2023-04-09T00:01:27;94855.66;;;6.98;100.00
35989;BME280;22064;42.672;23.282;2023-04-09T00:03:54;94853.47;;;7.01;100.00
35989;BME280;22064;42.672;23.282;2023-04-09T00:06:20;94862.47;;;7.17;100.00
35989;BME280;22064;42.672;23.282;2023-04-09T00:08:46;94862.53;;;7.10;100.00
35989;BME280;22064;42.672;23.282;2023-04-09T00:11:11;94867.44;;;7.18;100.00
35989;BME280;22064;42.672;23.282;2023-04-09T00:13:37;94865.97;;;7.23;100.00
35989;BME280;22064;42.672;23.282;2023-04-09T00:16:03;94862.09;;;7.32;100.00
35989;BME280;22064;42.672;23.282;2023-04-09T00:18:30;94868.47;;;7.36;100.00
35989;BME280;22064;42.672;23.282;2023-04-09T00:20:55;94861.03;;;7.39;100.00
35989;BME280;22064;42.672;23.282;2023-04-09T00:23:21;94861.41;;;7.43;100.00
35989;BME280;22064;42.672;23.282;2023-04-09T00:25:47;94863.41;;;7.59;100.00
35989;BME280;22064;42.672;23.282;2023-04-09T00:28:13;94865.63;;;7.56;100.00
35989;BME280;22064;42.672;23.282;2023-04-09T00:30:39;94864.69;;;7.50;100.00
35989;BME280;22064;42.672;23.282;2023-04-09T00:33:05;94867.44;;;7.37;100.00
35989;BME280;22064;42.672;23.282;2023-04-09T00:35:31;94862.75;;;7.27;100.00
35989;BME280;22064;42.672;23.282;2023-04-09T00:37:57;94876.22;;;7.17;100.00
35989;BME280;22064;42.672;23.282;2023-04-09T00:40:23;94874.47;;;7.11;100.00
35989;BME280;22064;42.672;23.282;2023-04-09T00:42:48;94878.56;;;7.19;100.00
35989;BME280;22064;42.672;23.282;2023-04-09T00:45:15;94869.50;;;7.10;100.00
35989;BME280;22064;42.672;23.282;2023-04-09T00:47:41;94871.91;;;6.86;100.00
35989;BME280;22064;42.672;23.282;2023-04-09T00:50:10;94857.50;;;6.72;100.00
35989;BME280;22064;42.672;23.282;2023-04-09T00:52:36;94861.22;;;6.58;100.00
35989;BME280;22064;42.672;23.282;2023-04-09T00:55:04;94867.41;;;6.50;100.00
35989;BME280;22064;42.672;23.282;2023-04-09T00:57:31;94856.22;;;6.56;100.00
35989;BME280;22064;42.672;23.282;2023-04-09T00:59:57;94876.19;;;6.99;100.00
35989;BME280;22064;42.672;23.282;2023-04-09T01:02:23;94868.63;;;6.98;100.00
35989;BME280;22064;42.672;23.282;2023-04-09T01:04:49;94874.34;;;7.25;100.00
35989;BME280;22064;42.672;23.282;2023-04-09T01:07:38;94873.88;;;7.09;100.00
35989;BME280;22064;42.672;23.282;2023-04-09T01:15:17;94876.22;;;7.36;100.00
35989;BME280;22064;42.672;23.282;2023-04-09T01:17:55;94878.31;;;7.27;100.00
35989;BME280;22064;42.672;23.282;2023-04-09T01:20:34;94880.13;;;7.45;100.00
35989;BME280;22064;42.672;23.282;2023-04-09T01:23:13;94879.34;;;7.45;100.00
35989;BME280;22064;42.672;23.282;2023-04-09T01:28:30;94887.09;;;7.45;100.00
35989;BME280;22064;42.672;23.282;2023-04-09T01:31:03;94881.25;;;7.49;100.00
35989;BME280;22064;42.672;23.282;2023-04-09T01:33:32;94884.22;;;7.53;100.00
35989;BME280;22064;42.672;23.282;2023-04-09T01:36:00;94872.81;;;7.54;100.00
35989;BME280;22064;42.672;23.282;2023-04-09T01:38:28;94865.19;;;7.59;100.00
35989;BME280;22064;42.672;23.282;2023-04-09T01:40:55;94879.09;;;7.64;100.00
35989;BME280;22064;42.672;23.282;2023-04-09T01:43:23;94878.38;;;7.57;100.00
35989;BME280;22064;42.672;23.282;2023-04-09T01:45:50;94876.94;;;7.61;100.00
35989;BME280;22064;42.672;23.282;2023-04-09T01:48:17;94882.31;;;7.60;100.00
35989;BME280;22064;42.672;23.282;2023-04-09T01:50:44;94882.91;;;7.62;100.00
35989;BME280;22064;42.672;23.282;2023-04-09T01:53:10;94884.28;;;7.64;100.00
35989;BME280;22064;42.672;23.282;2023-04-09T01:55:37;94878.66;;;7.68;100.00
35989;BME280;22064;42.672;23.282;2023-04-09T01:58:03;94876.78;;;7.56;100.00
35989;BME280;22064;42.672;23.282;2023-04-09T02:00:35;94882.56;;;7.58;100.00
35989;BME280;22064;42.672;23.282;2023-04-09T02:03:23;94878.66;;;7.68;100.00
35989;BME280;22064;42.672;23.282;2023-04-09T02:08:57;94872.47;;;7.32;100.00
35989;BME280;22064;42.672;23.282;2023-04-09T02:11:25;94879.50;;;7.25;100.00
35989;BME280;22064;42.672;23.282;2023-04-09T02:13:54;94883.97;;;7.17;100.00
35989;BME280;22064;42.672;23.282;2023-04-09T02:16:24;94878.63;;;7.12;100.00
35989;BME280;22064;42.672;23.282;2023-04-09T02:18:54;94865.69;;;7.12;100.00
35989;BME280;22064;42.672;23.282;2023-04-09T02:21:22;94872.47;;;7.13;100.00
35989;BME280;22064;42.672;23.282;2023-04-09T02:23:48;94879.50;;;7.06;100.00
35989;BME280;22064;42.672;23.282;2023-04-09T02:26:14;94868.72;;;7.09;100.00
35989;BME280;22064;42.672;23.282;2023-04-09T02:28:40;94874.63;;;6.91;100.00
35989;BME280;22064;42.672;23.282;2023-04-09T02:31:06;94879.34;;;7.01;100.00
35989;BME280;22064;42.672;23.282;2023-04-09T02:33:32;94869.53;;;6.85;100.00
35989;BME280;22064;42.672;23.282;2023-04-09T02:35:58;94874.56;;;6.80;100.00
35989;BME280;22064;42.672;23.282;2023-04-09T02:38:24;94868.78;;;6.78;100.00
35989;BME280;22064;42.672;23.282;2023-04-09T02:40:50;94864.53;;;6.65;100.00
35989;BME280;22064;42.672;23.282;2023-04-09T02:43:16;94864.41;;;6.78;100.00
35989;BME280;22064;42.672;23.282;2023-04-09T02:45:42;94875.25;;;6.68;100.00
35989;BME280;22064;42.672;23.282;2023-04-09T02:48:08;94870.06;;;6.68;100.00
35989;BME280;22064;42.672;23.282;2023-04-09T02:50:34;94867.72;;;6.60;100.00
35989;BME280;22064;42.672;23.282;2023-04-09T02:53:01;94860.84;;;6.54;100.00
35989;BME280;22064;42.672;23.282;2023-04-09T02:55:27;94863.78;;;6.58;100.00
35989;BME280;22064;42.672;23.282;2023-04-09T02:57:53;94858.56;;;6.64;100.00
35989;BME280;22064;42.672;23.282;2023-04-09T03:00:19;94862.94;;;6.39;100.00
35989;BME280;22064;42.672;23.282;2023-04-09T03:02:45;94865.81;;;6.24;100.00
35989;BME280;22064;42.672;23.282;2023-04-09T03:05:11;94873.19;;;6.20;100.00
35989;BME280;22064;42.672;23.282;2023-04-09T03:07:37;94856.53;;;6.10;100.00
35989;BME280;22064;42.672;23.282;2023-04-09T03:10:03;94860.50;;;6.12;100.00
35989;BME280;22064;42.672;23.282;2023-04-09T03:12:29;94859.13;;;6.10;100.00
35989;BME280;22064;42.672;23.282;2023-04-09T03:14:55;94853.34;;;6.14;100.00
35989;BME280;22064;42.672;23.282;2023-04-09T03:17:21;94854.13;;;6.15;100.00
35989;BME280;22064;42.672;23.282;2023-04-09T03:19:51;94855.66;;;6.22;100.00
35989;BME280;22064;42.672;23.282;2023-04-09T03:22:17;94862.03;;;6.27;100.00
35989;BME280;22064;42.672;23.282;2023-04-09T03:24:43;94868.19;;;6.25;100.00
35989;BME280;22064;42.672;23.282;2023-04-09T03:27:09;94861.44;;;6.24;100.00
35989;BME280;22064;42.672;23.282;2023-04-09T03:29:35;94852.34;;;6.15;100.00
35989;BME280;22064;42.672;23.282;2023-04-09T03:32:01;94859.16;;;6.35;100.00
35989;BME280;22064;42.672;23.282;2023-04-09T03:34:27;94865.66;;;6.44;100.00
35989;BME280;22064;42.672;23.282;2023-04-09T03:36:55;94858.34;;;6.41;100.00
35989;BME280;22064;42.672;23.282;2023-04-09T03:39:28;94855.19;;;6.32;100.00
35989;BME280;22064;42.672;23.282;2023-04-09T03:41:57;94853.56;;;6.38;100.00
35989;BME280;22064;42.672;23.282;2023-04-09T03:44:25;94861.75;;;6.35;100.00
35989;BME280;22064;42.672;23.282;2023-04-09T03:47:12;94862.16;;;6.32;100.00
35989;BME280;22064;42.672;23.282;2023-04-09T03:49:38;94861.34;;;6.38;100.00
35989;BME280;22064;42.672;23.282;2023-04-09T03:52:17;94858.19;;;6.36;100.00
35989;BME280;22064;42.672;23.282;2023-04-09T03:54:50;94867.56;;;6.30;100.00
35989;BME280;22064;42.672;23.282;2023-04-09T03:57:21;94866.84;;;6.16;100.00
35989;BME280;22064;42.672;23.282;2023-04-09T03:59:50;94878.78;;;6.17;100.00
35989;BME280;22064;42.672;23.282;2023-04-09T04:02:19;94877.59;;;6.13;100.00
35989;BME280;22064;42.672;23.282;2023-04-09T04:04:53;94873.25;;;6.14;100.00
35989;BME280;22064;42.672;23.282;2023-04-09T04:07:21;94875.19;;;6.18;100.00
35989;BME280;22064;42.672;23.282;2023-04-09T04:09:54;94873.47;;;6.06;100.00
35989;BME280;22064;42.672;23.282;2023-04-09T04:12:21;94874.19;;;6.19;100.00
35989;BME280;22064;42.672;23.282;2023-04-09T04:15:02;94870.06;;;6.12;100.00
35989;BME280;22064;42.672;23.282;2023-04-09T04:17:40;94872.88;;;6.04;100.00
35989;BME280;22064;42.672;23.282;2023-04-09T04:20:13;94869.66;;;6.15;100.00
35989;BME280;22064;42.672;23.282;2023-04-09T04:22:52;94869.28;;;6.11;100.00
35989;BME280;22064;42.672;23.282;2023-04-09T04:25:17;94864.66;;;6.20;100.00
35989;BME280;22064;42.672;23.282;2023-04-09T04:27:46;94866.13;;;6.34;100.00
35989;BME280;22064;42.672;23.282;2023-04-09T04:30:13;94874.22;;;6.44;100.00
35989;BME280;22064;42.672;23.282;2023-04-09T04:32:56;94872.53;;;6.32;100.00
35989;BME280;22064;42.672;23.282;2023-04-09T04:35:23;94877.44;;;6.40;100.00
35989;BME280;22064;42.672;23.282;2023-04-09T04:37:53;94878.19;;;6.47;100.00
35989;BME280;22064;42.672;23.282;2023-04-09T04:40:20;94867.00;;;6.53;100.00
35989;BME280;22064;42.672;23.282;2023-04-09T04:42:50;94877.25;;;6.66;100.00
35989;BME280;22064;42.672;23.282;2023-04-09T04:45:17;94872.59;;;6.50;100.00
35989;BME280;22064;42.672;23.282;2023-04-09T04:47:47;94882.63;;;6.65;100.00
35989;BME280;22064;42.672;23.282;2023-04-09T04:50:14;94875.59;;;6.72;100.00
35989;BME280;22064;42.672;23.282;2023-04-09T04:52:52;94879.63;;;6.68;100.00
35989;BME280;22064;42.672;23.282;2023-04-09T04:55:19;94881.91;;;6.83;100.00
35989;BME280;22064;42.672;23.282;2023-04-09T04:57:46;94871.19;;;6.79;100.00
35989;BME280;22064;42.672;23.282;2023-04-09T05:00:13;94867.94;;;6.84;100.00
35989;BME280;22064;42.672;23.282;2023-04-09T05:02:39;94873.59;;;6.99;100.00
35989;BME280;22064;42.672;23.282;2023-04-09T05:05:18;94877.75;;;7.00;100.00
35989;BME280;22064;42.672;23.282;2023-04-09T05:07:55;94880.34;;;7.00;100.00
35989;BME280;22064;42.672;23.282;2023-04-09T05:10:22;94881.09;;;7.07;100.00
35989;BME280;22064;42.672;23.282;2023-04-09T05:12:48;94878.44;;;7.14;100.00
35989;BME280;22064;42.672;23.282;2023-04-09T05:15:23;94884.03;;;7.11;100.00
35989;BME280;22064;42.672;23.282;2023-04-09T05:17:49;94878.81;;;7.17;100.00
35989;BME280;22064;42.672;23.282;2023-04-09T05:20:16;94877.94;;;7.24;100.00
35989;BME280;22064;42.672;23.282;2023-04-09T05:22:51;94875.56;;;7.22;100.00
35989;BME280;22064;42.672;23.282;2023-04-09T05:25:23;94874.75;;;7.22;100.00
35989;BME280;22064;42.672;23.282;2023-04-09T05:27:50;94879.81;;;7.16;100.00
35989;BME280;22064;42.672;23.282;2023-04-09T05:30:16;94878.28;;;7.09;100.00
35989;BME280;22064;42.672;23.282;2023-04-09T05:32:43;94882.09;;;7.06;100.00
35989;BME280;22064;42.672;23.282;2023-04-09T05:35:09;94872.69;;;7.12;100.00
35989;BME280;22064;42.672;23.282;2023-04-09T05:37:39;94878.72;;;7.24;100.00
35989;BME280;22064;42.672;23.282;2023-04-09T05:40:06;94873.75;;;7.23;100.00
35989;BME280;22064;42.672;23.282;2023-04-09T05:42:32;94878.31;;;7.27;100.00
35989;BME280;22064;42.672;23.282;2023-04-09T05:45:01;94888.75;;;7.39;100.00
35989;BME280;22064;42.672;23.282;2023-04-09T05:47:28;94889.88;;;7.25;100.00
35989;BME280;22064;42.672;23.282;2023-04-09T05:50:04;94886.22;;;7.32;100.00
35989;BME280;22064;42.672;23.282;2023-04-09T05:52:31;94885.41;;;7.32;100.00
35989;BME280;22064;42.672;23.282;2023-04-09T05:54:57;94875.91;;;7.44;100.00
35989;BME280;22064;42.672;23.282;2023-04-09T05:57:38;94882.63;;;7.33;100.00
35989;BME280;22064;42.672;23.282;2023-04-09T06:00:05;94877.09;;;7.30;100.00
35989;BME280;22064;42.672;23.282;2023-04-09T06:02:42;94891.97;;;7.53;100.00
35989;BME280;22064;42.672;23.282;2023-04-09T06:05:09;94881.69;;;7.64;100.00
35989;BME280;22064;42.672;23.282;2023-04-09T06:07:35;94883.59;;;7.87;100.00
35989;BME280;22064;42.672;23.282;2023-04-09T06:10:02;94881.41;;;8.03;100.00
35989;BME280;22064;42.672;23.282;2023-04-09T06:12:28;94877.00;;;8.03;100.00
35989;BME280;22064;42.672;23.282;2023-04-09T06:14:54;94886.47;;;8.28;100.00
35989;BME280;22064;42.672;23.282;2023-04-09T06:17:20;94893.38;;;8.34;100.00
35989;BME280;22064;42.672;23.282;2023-04-09T06:19:46;94888.16;;;8.34;100.00
35989;BME280;22064;42.672;23.282;2023-04-09T06:22:12;94888.63;;;8.61;100.00
35989;BME280;22064;42.672;23.282;2023-04-09T06:24:38;94883.09;;;8.81;100.00
35989;BME280;22064;42.672;23.282;2023-04-09T06:27:04;94882.09;;;8.94;100.00
35989;BME280;22064;42.672;23.282;2023-04-09T06:29:30;94889.91;;;9.17;100.00
35989;BME280;22064;42.672;23.282;2023-04-09T06:31:56;94883.59;;;9.01;100.00
35989;BME280;22064;42.672;23.282;2023-04-09T06:34:22;94893.75;;;9.15;100.00
35989;BME280;22064;42.672;23.282;2023-04-09T06:36:48;94890.69;;;9.41;100.00
35989;BME280;22064;42.672;23.282;2023-04-09T06:39:14;94867.44;;;9.11;100.00
35989;BME280;22064;42.672;23.282;2023-04-09T06:41:40;94885.16;;;9.26;100.00
35989;BME280;22064;42.672;23.282;2023-04-09T06:44:19;94893.28;;;9.41;100.00
35989;BME280;22064;42.672;23.282;2023-04-09T06:46:46;94894.06;;;9.42;100.00
35989;BME280;22064;42.672;23.282;2023-04-09T06:49:12;94898.38;;;9.48;100.00
35989;BME280;22064;42.672;23.282;2023-04-09T06:51:38;94895.44;;;9.44;100.00
35989;BME280;22064;42.672;23.282;2023-04-09T06:54:04;94900.28;;;9.53;100.00
35989;BME280;22064;42.672;23.282;2023-04-09T06:56:30;94895.66;;;9.31;100.00
35989;BME280;22064;42.672;23.282;2023-04-09T06:58:56;94897.00;;;9.34;100.00
35989;BME280;22064;42.672;23.282;2023-04-09T07:01:21;94896.09;;;9.28;100.00
35989;BME280;22064;42.672;23.282;2023-04-09T07:03:47;94866.63;;;8.99;100.00
35989;BME280;22064;42.672;23.282;2023-04-09T07:06:13;94901.50;;;9.62;100.00
35989;BME280;22064;42.672;23.282;2023-04-09T07:08:40;94889.69;;;9.94;100.00
35989;BME280;22064;42.672;23.282;2023-04-09T07:11:06;94899.06;;;9.95;100.00
35989;BME280;22064;42.672;23.282;2023-04-09T07:13:32;94899.84;;;9.96;100.00
35989;BME280;22064;42.672;23.282;2023-04-09T07:15:58;94899.63;;;9.98;100.00
35989;BME280;22064;42.672;23.282;2023-04-09T07:18:24;94901.94;;;10.11;100.00
35989;BME280;22064;42.672;23.282;2023-04-09T07:20:51;94898.25;;;10.35;100.00
35989;BME280;22064;42.672;23.282;2023-04-09T07:23:17;94897.59;;;10.57;100.00
35989;BME280;22064;42.672;23.282;2023-04-09T07:25:43;94890.41;;;10.64;100.00
35989;BME280;22064;42.672;23.282;2023-04-09T07:28:09;94900.91;;;10.69;100.00
35989;BME280;22064;42.672;23.282;2023-04-09T07:30:38;94893.19;;;10.91;100.00
35989;BME280;22064;42.672;23.282;2023-04-09T07:33:04;94894.13;;;11.02;100.00
35989;BME280;22064;42.672;23.282;2023-04-09T07:35:30;94905.16;;;11.26;100.00
35989;BME280;22064;42.672;23.282;2023-04-09T07:37:57;94898.44;;;11.47;100.00
35989;BME280;22064;42.672;23.282;2023-04-09T07:40:23;94890.84;;;11.67;100.00
35989;BME280;22064;42.672;23.282;2023-04-09T07:42:49;94902.94;;;11.95;100.00
35989;BME280;22064;42.672;23.282;2023-04-09T07:45:15;94891.19;;;11.93;100.00
35989;BME280;22064;42.672;23.282;2023-04-09T07:47:41;94903.16;;;11.50;100.00
35989;BME280;22064;42.672;23.282;2023-04-09T07:50:08;94890.56;;;11.08;100.00
35989;BME280;22064;42.672;23.282;2023-04-09T07:52:34;94905.81;;;11.16;100.00
35989;BME280;22064;42.672;23.282;2023-04-09T07:55:00;94900.09;;;11.36;100.00
35989;BME280;22064;42.672;23.282;2023-04-09T07:57:26;94890.63;;;11.30;100.00
35989;BME280;22064;42.672;23.282;2023-04-09T07:59:52;94903.38;;;11.09;100.00
35989;BME280;22064;42.672;23.282;2023-04-09T08:02:18;94896.41;;;11.15;100.00
35989;BME280;22064;42.672;23.282;2023-04-09T08:04:44;94904.91;;;11.27;100.00
35989;BME280;22064;42.672;23.282;2023-04-09T08:07:10;94906.50;;;11.28;100.00
35989;BME280;22064;42.672;23.282;2023-04-09T08:09:36;94904.91;;;11.27;100.00
35989;BME280;22064;42.672;23.282;2023-04-09T08:12:02;94911.50;;;11.52;100.00
35989;BME280;22064;42.672;23.282;2023-04-09T08:14:28;94902.81;;;11.63;100.00
35989;BME280;22064;42.672;23.282;2023-04-09T08:16:54;94906.38;;;11.01;100.00
35989;BME280;22064;42.672;23.282;2023-04-09T08:19:21;94897.44;;;10.97;100.00
35989;BME280;22064;42.672;23.282;2023-04-09T08:21:47;94909.44;;;11.15;100.00
35989;BME280;22064;42.672;23.282;2023-04-09T08:24:15;94901.00;;;11.08;100.00
35989;BME280;22064;42.672;23.282;2023-04-09T08:26:42;94913.47;;;10.72;100.00
35989;BME280;22064;42.672;23.282;2023-04-09T08:29:10;94883.16;;;10.66;100.00
35989;BME280;22064;42.672;23.282;2023-04-09T08:31:36;94895.31;;;10.77;100.00
35989;BME280;22064;42.672;23.282;2023-04-09T08:34:03;94896.97;;;10.83;100.00
35989;BME280;22064;42.672;23.282;2023-04-09T08:36:29;94909.72;;;10.68;100.00
35989;BME280;22064;42.672;23.282;2023-04-09T08:38:56;94897.31;;;10.42;100.00
35989;BME280;22064;42.672;23.282;2023-04-09T08:41:24;94914.94;;;10.51;100.00
35989;BME280;22064;42.672;23.282;2023-04-09T08:43:51;94899.03;;;10.07;100.00
35989;BME280;22064;42.672;23.282;2023-04-09T08:46:18;94900.88;;;10.24;100.00
35989;BME280;22064;42.672;23.282;2023-04-09T08:48:45;94901.34;;;10.49;100.00
35989;BME280;22064;42.672;23.282;2023-04-09T08:51:15;94892.44;;;10.62;100.00
35989;BME280;22064;42.672;23.282;2023-04-09T08:53:42;94895.13;;;10.50;100.00
35989;BME280;22064;42.672;23.282;2023-04-09T08:56:09;94882.91;;;10.51;100.00
35989;BME280;22064;42.672;23.282;2023-04-09T08:58:35;94886.22;;;10.63;100.00
35989;BME280;22064;42.672;23.282;2023-04-09T09:01:01;94892.31;;;10.69;100.00
35989;BME280;22064;42.672;23.282;2023-04-09T09:03:26;94883.84;;;10.45;100.00
35989;BME280;22064;42.672;23.282;2023-04-09T09:05:53;94893.84;;;10.24;100.00
35989;BME280;22064;42.672;23.282;2023-04-09T09:08:23;94885.34;;;10.57;100.00
35989;BME280;22064;42.672;23.282;2023-04-09T09:10:50;94893.38;;;10.56;100.00
35989;BME280;22064;42.672;23.282;2023-04-09T09:13:23;94887.88;;;10.86;100.00
35989;BME280;22064;42.672;23.282;2023-04-09T09:15:52;94882.94;;;10.84;100.00
35989;BME280;22064;42.672;23.282;2023-04-09T09:18:20;94879.28;;;10.85;100.00
35989;BME280;22064;42.672;23.282;2023-04-09T09:20:46;94871.63;;;10.96;100.00
35989;BME280;22064;42.672;23.282;2023-04-09T09:23:12;94863.81;;;11.13;100.00
35989;BME280;22064;42.672;23.282;2023-04-09T09:25:40;94890.09;;;11.11;100.00
35989;BME280;22064;42.672;23.282;2023-04-09T09:28:10;94883.00;;;10.90;100.00
35989;BME280;22064;42.672;23.282;2023-04-09T09:30:38;94877.00;;;11.06;100.00
35989;BME280;22064;42.672;23.282;2023-04-09T09:33:07;94871.59;;;11.51;100.00
35989;BME280;22064;42.672;23.282;2023-04-09T09:35:53;94862.84;;;11.02;100.00
35989;BME280;22064;42.672;23.282;2023-04-09T09:38:22;94860.44;;;10.78;100.00
35989;BME280;22064;42.672;23.282;2023-04-09T09:40:48;94860.81;;;10.87;100.00
35989;BME280;22064;42.672;23.282;2023-04-09T09:43:14;94861.19;;;10.96;100.00
35989;BME280;22064;42.672;23.282;2023-04-09T09:45:41;94865.41;;;10.97;100.00
35989;BME280;22064;42.672;23.282;2023-04-09T09:48:10;94861.63;;;11.43;100.00
35989;BME280;22064;42.672;23.282;2023-04-09T09:50:38;94866.28;;;11.63;100.00
35989;BME280;22064;42.672;23.282;2023-04-09T09:53:07;94856.81;;;11.57;95.35
35989;BME280;22064;42.672;23.282;2023-04-09T09:55:39;94846.47;;;11.62;95.36
35989;BME280;22064;42.672;23.282;2023-04-09T09:58:30;94870.78;;;11.90;87.07
35989;BME280;22064;42.672;23.282;2023-04-09T10:00:57;94853.94;;;11.97;82.15
35989;BME280;22064;42.672;23.282;2023-04-09T10:03:28;94861.78;;;12.24;82.49
35989;BME280;22064;42.672;23.282;2023-04-09T10:05:56;94855.75;;;12.24;76.33
35989;BME280;22064;42.672;23.282;2023-04-09T10:08:23;94849.75;;;11.96;77.14
35989;BME280;22064;42.672;23.282;2023-04-09T10:10:50;94858.94;;;12.04;76.93
35989;BME280;22064;42.672;23.282;2023-04-09T10:13:38;94854.34;;;12.38;75.11
35989;BME280;22064;42.672;23.282;2023-04-09T10:16:05;94833.34;;;12.28;76.64
35989;BME280;22064;42.672;23.282;2023-04-09T10:18:32;94849.94;;;12.44;73.71
35989;BME280;22064;42.672;23.282;2023-04-09T10:21:08;94842.09;;;12.71;71.82
35989;BME280;22064;42.672;23.282;2023-04-09T10:26:03;94831.75;;;12.54;68.84
35989;BME280;22064;42.672;23.282;2023-04-09T10:28:30;94856.59;;;12.30;70.35
35989;BME280;22064;42.672;23.282;2023-04-09T10:30:57;94858.00;;;12.42;71.44
35989;BME280;22064;42.672;23.282;2023-04-09T10:33:25;94849.88;;;12.34;70.16
35989;BME280;22064;42.672;23.282;2023-04-09T10:35:53;94838.72;;;12.43;67.68
35989;BME280;22064;42.672;23.282;2023-04-09T10:38:40;94851.72;;;13.03;67.31
35989;BME280;22064;42.672;23.282;2023-04-09T10:41:21;94837.63;;;13.51;63.82
35989;BME280;22064;42.672;23.282;2023-04-09T10:43:49;94837.56;;;13.41;62.38
35989;BME280;22064;42.672;23.282;2023-04-09T10:51:42;94833.91;;;14.10;58.45
35989;BME280;22064;42.672;23.282;2023-04-09T10:59:37;94820.44;;;13.76;56.97
35989;BME280;22064;42.672;23.282;2023-04-09T11:02:19;94823.91;;;13.97;56.02
35989;BME280;22064;42.672;23.282;2023-04-09T11:08:04;94820.56;;;14.42;54.95
35989;BME280;22064;42.672;23.282;2023-04-09T11:10:31;94809.09;;;14.74;54.41
35989;BME280;22064;42.672;23.282;2023-04-09T11:12:57;94805.69;;;14.84;53.31
35989;BME280;22064;42.672;23.282;2023-04-09T11:15:23;94817.72;;;14.95;52.92
35989;BME280;22064;42.672;23.282;2023-04-09T11:17:49;94817.44;;;15.12;51.94
35989;BME280;22064;42.672;23.282;2023-04-09T11:20:19;94816.84;;;15.35;51.64
35989;BME280;22064;42.672;23.282;2023-04-09T11:22:46;94813.34;;;15.65;50.52
35989;BME280;22064;42.672;23.282;2023-04-09T11:25:40;94820.47;;;15.70;49.57
35989;BME280;22064;42.672;23.282;2023-04-09T11:28:06;94814.97;;;15.51;49.92
35989;BME280;22064;42.672;23.282;2023-04-09T11:30:33;94813.69;;;15.38;50.54
35989;BME280;22064;42.672;23.282;2023-04-09T11:33:00;94808.72;;;15.37;51.09
35989;BME280;22064;42.672;23.282;2023-04-09T11:35:26;94808.53;;;15.02;51.68
35989;BME280;22064;42.672;23.282;2023-04-09T11:37:52;94811.13;;;14.26;53.07
35989;BME280;22064;42.672;23.282;2023-04-09T11:40:28;94805.91;;;14.16;54.44
35989;BME280;22064;42.672;23.282;2023-04-09T11:42:54;94814.00;;;14.14;54.92
35989;BME280;22064;42.672;23.282;2023-04-09T11:45:26;94818.47;;;14.29;56.75
35989;BME280;22064;42.672;23.282;2023-04-09T11:47:53;94811.09;;;14.00;56.77
35989;BME280;22064;42.672;23.282;2023-04-09T11:50:20;94792.75;;;13.85;56.10
35989;BME280;22064;42.672;23.282;2023-04-09T11:52:48;94804.75;;;13.71;56.54
35989;BME280;22064;42.672;23.282;2023-04-09T11:55:27;94803.16;;;13.70;56.14
35989;BME280;22064;42.672;23.282;2023-04-09T11:57:58;94800.56;;;13.80;56.46
35989;BME280;22064;42.672;23.282;2023-04-09T12:00:27;94802.69;;;13.88;59.17
35989;BME280;22064;42.672;23.282;2023-04-09T12:03:01;94803.09;;;13.49;81.83
35989;BME280;22064;42.672;23.282;2023-04-09T12:05:29;94809.38;;;13.53;91.90
35989;BME280;22064;42.672;23.282;2023-04-09T12:08:04;94795.25;;;13.49;100.00
35989;BME280;22064;42.672;23.282;2023-04-09T12:10:36;94798.94;;;13.58;97.27
35989;BME280;22064;42.672;23.282;2023-04-09T12:13:07;94789.31;;;13.74;88.00
35989;BME280;22064;42.672;23.282;2023-04-09T12:15:36;94798.22;;;13.78;91.91
35989;BME280;22064;42.672;23.282;2023-04-09T12:18:07;94791.41;;;13.82;91.21
35989;BME280;22064;42.672;23.282;2023-04-09T12:20:35;94794.31;;;13.86;85.93
35989;BME280;22064;42.672;23.282;2023-04-09T12:23:04;94796.75;;;14.18;92.46
35989;BME280;22064;42.672;23.282;2023-04-09T12:25:34;94791.78;;;14.37;96.21
35989;BME280;22064;42.672;23.282;2023-04-09T12:28:03;94791.22;;;14.20;93.04
35989;BME280;22064;42.672;23.282;2023-04-09T12:30:29;94781.28;;;14.32;85.03
35989;BME280;22064;42.672;23.282;2023-04-09T12:32:55;94776.59;;;14.75;81.03
35989;BME280;22064;42.672;23.282;2023-04-09T12:35:21;94774.13;;;15.19;69.65
35989;BME280;22064;42.672;23.282;2023-04-09T12:37:47;94775.03;;;15.64;61.97
35989;BME280;22064;42.672;23.282;2023-04-09T12:40:14;94773.38;;;15.84;56.59
35989;BME280;22064;42.672;23.282;2023-04-09T12:42:41;94766.31;;;15.79;53.28
35989;BME280;22064;42.672;23.282;2023-04-09T12:45:12;94766.41;;;15.59;52.04
35989;BME280;22064;42.672;23.282;2023-04-09T12:47:38;94769.88;;;15.44;52.12
35989;BME280;22064;42.672;23.282;2023-04-09T12:50:06;94768.63;;;15.21;53.34
35989;BME280;22064;42.672;23.282;2023-04-09T12:52:33;94771.03;;;15.07;52.13
35989;BME280;22064;42.672;23.282;2023-04-09T12:55:02;94766.56;;;15.08;52.19
35989;BME280;22064;42.672;23.282;2023-04-09T12:57:29;94766.59;;;15.02;52.33
35989;BME280;22064;42.672;23.282;2023-04-09T12:59:55;94759.22;;;15.10;52.89
35989;BME280;22064;42.672;23.282;2023-04-09T13:02:22;94760.31;;;14.88;50.91
35989;BME280;22064;42.672;23.282;2023-04-09T13:04:48;94747.22;;;14.73;51.52
35989;BME280;22064;42.672;23.282;2023-04-09T13:07:15;94755.09;;;14.78;51.24
35989;BME280;22064;42.672;23.282;2023-04-09T13:09:45;94758.47;;;14.99;51.23
35989;BME280;22064;42.672;23.282;2023-04-09T13:12:12;94752.66;;;15.07;51.23
35989;BME280;22064;42.672;23.282;2023-04-09T13:14:40;94750.13;;;14.66;52.29
35989;BME280;22064;42.672;23.282;2023-04-09T13:17:06;94757.16;;;14.91;51.95
35989;BME280;22064;42.672;23.282;2023-04-09T13:19:32;94755.09;;;14.37;50.39
35989;BME280;22064;42.672;23.282;2023-04-09T13:21:58;94744.88;;;14.41;49.52